Time;durP1;ratioP1;P1;durP2;ratioP2;P2;SDS_P1;SDS_P2;PMS_P1;PMS_P2;Temp;Humidity;BMP_temperature;BMP_pressure;BME280_temperature;BME280_humidity;BME280_pressure;Samples;Min_cycle;Max_cycle;Signal;HPM_P1;HPM_P2
2022/03/07 00:01:44;;;;;;;9.23;4.75;;;;;;;1.67;67.00;102679.34;5031173;28;20049;-45
2022/03/07 00:04:14;;;;;;;9.90;4.70;;;;;;;1.58;67.67;102675.78;5016428;28;20046;-44
2022/03/07 00:06:41;;;;;;;9.93;5.03;;;;;;;1.69;67.66;102680.03;5016579;28;20046;-46
2022/03/07 00:09:09;;;;;;;8.90;4.65;;;;;;;1.77;67.25;102676.53;5016136;28;20129;-44
2022/03/07 00:11:37;;;;;;;9.38;4.85;;;;;;;1.82;67.11;102676.88;4998784;28;20070;-45
2022/03/07 00:14:05;;;;;;;9.27;5.20;;;;;;;1.90;66.95;102682.25;5034549;28;20069;-45
2022/03/07 00:16:33;;;;;;;9.40;4.70;;;;;;;1.92;66.69;102682.94;5034870;28;20041;-44
2022/03/07 00:19:02;;;;;;;9.13;4.72;;;;;;;1.86;66.52;102680.91;5035624;28;20496;-44
2022/03/07 00:21:29;;;;;;;11.13;4.65;;;;;;;1.87;66.92;102680.72;5031696;28;20038;-45
2022/03/07 00:23:57;;;;;;;9.85;5.38;;;;;;;1.92;66.14;102680.25;5015589;28;20411;-44
2022/03/07 00:26:25;;;;;;;9.40;5.18;;;;;;;1.94;66.54;102680.94;5014707;28;20034;-45
2022/03/07 00:28:53;;;;;;;10.93;5.22;;;;;;;1.94;66.66;102683.63;5015729;28;20076;-44
2022/03/07 00:31:21;;;;;;;8.32;4.72;;;;;;;1.88;66.73;102682.44;5014344;28;20049;-45
2022/03/07 00:33:50;;;;;;;10.02;4.93;;;;;;;1.89;66.89;102686.78;5027365;28;20037;-45
2022/03/07 00:36:19;;;;;;;9.82;5.10;;;;;;;1.88;66.69;102684.28;5035480;28;20048;-42
2022/03/07 00:38:47;;;;;;;11.30;5.25;;;;;;;1.82;66.83;102696.50;5035223;28;20041;-46
2022/03/07 00:41:15;;;;;;;8.60;4.80;;;;;;;1.77;66.98;102689.97;5030298;28;20049;-46
2022/03/07 00:43:44;;;;;;;9.27;5.07;;;;;;;1.74;67.27;102687.59;5016844;28;20042;-47
2022/03/07 00:46:12;;;;;;;11.02;5.72;;;;;;;1.57;67.83;102692.09;5014520;28;20136;-50
2022/03/07 00:48:40;;;;;;;10.15;6.05;;;;;;;1.60;68.25;102692.59;5015732;28;20050;-46
2022/03/07 00:51:10;;;;;;;10.65;5.40;;;;;;;1.65;67.93;102687.56;5014628;28;20042;-46
2022/03/07 00:53:38;;;;;;;9.70;5.40;;;;;;;1.57;68.07;102690.22;5032290;28;20111;-46
2022/03/07 00:56:07;;;;;;;10.13;5.68;;;;;;;1.56;68.40;102690.38;5033826;28;20072;-44
2022/03/07 00:58:35;;;;;;;10.00;5.00;;;;;;;1.50;68.42;102699.94;5035255;28;20049;-46
2022/03/07 01:01:03;;;;;;;13.68;6.07;;;;;;;1.49;68.63;102700.94;5013761;28;20050;-46
2022/03/07 01:03:31;;;;;;;10.45;5.45;;;;;;;1.51;68.52;102698.09;5023030;28;20040;-45
2022/03/07 01:05:59;;;;;;;9.80;5.40;;;;;;;1.52;68.55;102695.25;5033836;28;20466;-47
2022/03/07 01:08:27;;;;;;;9.60;5.10;;;;;;;1.51;68.71;102690.88;5034823;28;20099;-45
2022/03/07 01:10:55;;;;;;;13.10;5.90;;;;;;;1.54;68.54;102695.94;5033969;28;20409;-46
2022/03/07 01:13:25;;;;;;;9.85;5.07;;;;;;;1.52;68.29;102689.88;5031603;28;20128;-45
2022/03/07 01:15:52;;;;;;;11.10;5.13;;;;;;;1.53;68.25;102696.09;5025150;28;20132;-47
2022/03/07 01:18:21;;;;;;;10.85;5.28;;;;;;;1.55;68.47;102686.88;5013870;28;20081;-45
2022/03/07 01:20:48;;;;;;;9.52;5.30;;;;;;;1.57;68.25;102698.28;5014040;28;20125;-45
2022/03/07 01:23:19;;;;;;;9.98;5.55;;;;;;;1.60;68.39;102694.44;5014009;28;20073;-43
2022/03/07 01:25:47;;;;;;;11.05;5.68;;;;;;;1.65;68.10;102690.25;5014905;28;20073;-45
2022/03/07 01:28:15;;;;;;;8.93;4.93;;;;;;;1.65;67.88;102700.16;5014540;28;20138;-46
2022/03/07 01:30:42;;;;;;;10.07;5.78;;;;;;;1.66;68.09;102686.56;5049347;28;20563;-45
2022/03/07 01:33:10;;;;;;;8.95;4.93;;;;;;;1.73;67.96;102694.81;5019257;28;20064;-46
2022/03/07 01:35:38;;;;;;;9.73;5.50;;;;;;;1.79;67.73;102685.25;5033167;28;20088;-45
2022/03/07 01:38:05;;;;;;;10.48;5.10;;;;;;;1.85;67.09;102689.97;5033481;28;20133;-44
2022/03/07 01:40:33;;;;;;;9.65;5.50;;;;;;;1.85;67.18;102684.59;5030079;28;20473;-46
2022/03/07 01:43:01;;;;;;;10.10;5.10;;;;;;;1.86;67.03;102688.97;5014303;28;20038;-47
2022/03/07 01:45:29;;;;;;;10.90;5.05;;;;;;;1.87;67.23;102685.28;5029737;28;20042;-45
2022/03/07 01:47:57;;;;;;;7.70;4.50;;;;;;;1.88;66.83;102686.97;5014215;28;20138;-46
2022/03/07 01:50:28;;;;;;;11.82;5.28;;;;;;;1.86;66.82;102687.13;5013015;28;20495;-46
2022/03/07 01:52:56;;;;;;;9.38;5.00;;;;;;;1.85;66.69;102687.28;5029552;28;20038;-43
2022/03/07 01:55:25;;;;;;;9.95;5.20;;;;;;;1.77;67.14;102692.66;4991387;28;20056;-43
2022/03/07 01:57:57;;;;;;;9.32;5.07;;;;;;;1.61;67.59;102688.06;5012840;28;20057;-45
2022/03/07 02:00:26;;;;;;;9.98;5.25;;;;;;;1.57;67.71;102687.53;5012727;28;20129;-42
2022/03/07 02:02:54;;;;;;;12.50;5.60;;;;;;;1.48;67.91;102683.13;5013005;28;20065;-42
2022/03/07 02:05:30;;;;;;;10.25;5.65;;;;;;;1.40;68.17;102693.88;5013958;28;20080;-44
2022/03/07 02:08:02;;;;;;;10.30;5.07;;;;;;;1.43;68.72;102689.00;5012969;28;20084;-43
2022/03/07 02:10:42;;;;;;;9.65;4.68;;;;;;;1.53;68.30;102685.34;5012754;28;20038;-45
2022/03/07 02:13:15;;;;;;;9.90;5.13;;;;;;;1.51;67.94;102677.44;5012726;28;20141;-45
2022/03/07 02:15:55;;;;;;;9.77;5.30;;;;;;;1.43;68.54;102669.34;5005447;28;20045;-47
2022/03/07 02:18:29;;;;;;;10.52;4.97;;;;;;;1.47;68.41;102670.72;5016640;28;20045;-45
2022/03/07 02:21:09;;;;;;;9.23;5.40;;;;;;;1.40;68.63;102675.91;4997422;28;20508;-48
2022/03/07 02:23:46;;;;;;;9.00;4.85;;;;;;;1.42;68.82;102667.66;5013180;28;20045;-46
2022/03/07 02:26:16;;;;;;;10.00;5.20;;;;;;;1.38;68.52;102669.00;5021774;28;20451;-45
2022/03/07 02:28:46;;;;;;;9.88;5.13;;;;;;;1.36;69.17;102673.69;5012672;28;20069;-46
2022/03/07 02:31:19;;;;;;;11.60;5.35;;;;;;;1.35;68.98;102670.16;4996446;28;20097;-45
2022/03/07 02:33:49;;;;;;;10.82;5.13;;;;;;;1.27;69.26;102670.97;5012310;28;20467;-45
2022/03/07 02:36:19;;;;;;;8.98;5.10;;;;;;;1.21;69.49;102676.97;5006941;28;20042;-42
2022/03/07 02:38:48;;;;;;;8.75;5.00;;;;;;;1.23;70.01;102679.53;5012235;28;20112;-46
2022/03/07 02:41:16;;;;;;;9.52;5.35;;;;;;;1.28;69.90;102678.03;5012571;28;20384;-44
2022/03/07 02:43:48;;;;;;;9.82;5.45;;;;;;;1.34;69.49;102678.38;5012351;28;20034;-45
2022/03/07 02:46:16;;;;;;;9.95;5.25;;;;;;;1.25;69.72;102672.97;5015434;28;20091;-46
2022/03/07 02:48:44;;;;;;;10.38;5.20;;;;;;;1.25;69.89;102672.13;5014733;28;20121;-44
2022/03/07 02:51:11;;;;;;;8.88;4.78;;;;;;;1.21;69.92;102674.28;5012221;28;20452;-44
2022/03/07 02:53:39;;;;;;;8.00;5.10;;;;;;;1.14;70.37;102670.56;4996148;28;20096;-44
2022/03/07 02:56:07;;;;;;;9.63;5.18;;;;;;;1.15;70.49;102672.25;5043143;28;20044;-46
2022/03/07 02:58:35;;;;;;;11.02;5.35;;;;;;;1.19;70.36;102668.25;5013361;28;20038;-46
2022/03/07 03:01:03;;;;;;;12.02;5.85;;;;;;;1.10;70.36;102679.94;5013188;28;20088;-46
2022/03/07 03:03:31;;;;;;;10.60;5.40;;;;;;;0.89;71.42;102672.28;5011903;28;20049;-46
2022/03/07 03:05:59;;;;;;;11.68;5.75;;;;;;;0.91;72.00;102674.78;5013537;28;20053;-47
2022/03/07 03:08:27;;;;;;;10.02;5.65;;;;;;;1.02;71.51;102672.69;5019437;28;20497;-45
2022/03/07 03:10:57;;;;;;;9.05;5.18;;;;;;;0.92;71.87;102666.59;5013061;28;20034;-46
2022/03/07 03:13:25;;;;;;;10.73;5.75;;;;;;;0.88;72.22;102669.75;5013223;28;20053;-47
2022/03/07 03:15:54;;;;;;;11.05;5.13;;;;;;;0.90;71.82;102662.38;5013411;28;20408;-45
2022/03/07 03:18:22;;;;;;;10.48;5.30;;;;;;;0.74;72.54;102661.25;5026967;28;20037;-47
2022/03/07 03:20:53;;;;;;;9.85;5.50;;;;;;;0.58;73.50;102670.06;5030982;28;20536;-45
2022/03/07 03:23:22;;;;;;;9.65;5.40;;;;;;;0.49;73.80;102670.16;5013382;28;20133;-44
2022/03/07 03:25:50;;;;;;;9.10;5.03;;;;;;;0.41;74.71;102669.09;5029400;28;20053;-47
2022/03/07 03:28:18;;;;;;;10.07;5.65;;;;;;;0.47;73.92;102672.13;5011041;28;20117;-45
2022/03/07 03:30:46;;;;;;;13.02;5.88;;;;;;;0.53;74.03;102676.88;5013115;28;20058;-45
2022/03/07 03:33:13;;;;;;;10.30;5.47;;;;;;;0.59;74.48;102670.88;5017682;28;20038;-44
2022/03/07 03:35:43;;;;;;;11.25;5.45;;;;;;;0.66;73.62;102677.31;5028370;28;20129;-46
2022/03/07 03:38:11;;;;;;;11.25;5.47;;;;;;;0.74;73.79;102680.03;5036085;28;20171;-46
2022/03/07 03:40:39;;;;;;;10.40;5.38;;;;;;;0.76;73.21;102678.03;5036226;28;20048;-44
2022/03/07 03:43:06;;;;;;;10.07;5.30;;;;;;;0.70;73.30;102670.66;5036524;28;20056;-46
2022/03/07 03:45:34;;;;;;;9.10;5.00;;;;;;;0.58;73.57;102674.59;5027637;28;20034;-45
2022/03/07 03:48:02;;;;;;;11.38;5.35;;;;;;;0.56;74.11;102676.56;5016695;28;20030;-47
2022/03/07 03:50:30;;;;;;;11.50;5.38;;;;;;;0.52;74.42;102675.19;5015319;28;20037;-46
2022/03/07 03:52:58;;;;;;;12.02;5.40;;;;;;;0.60;74.61;102683.28;5016771;28;20038;-46
2022/03/07 03:55:26;;;;;;;10.20;5.85;;;;;;;0.72;73.80;102676.69;5017591;28;20042;-45
2022/03/07 03:57:54;;;;;;;9.02;5.20;;;;;;;0.79;73.21;102683.09;5017095;28;20511;-44
2022/03/07 04:00:23;;;;;;;10.00;4.82;;;;;;;0.77;72.87;102679.75;5015331;28;20048;-46
2022/03/07 04:02:51;;;;;;;10.27;5.60;;;;;;;0.72;72.95;102681.19;5016647;28;20046;-47
2022/03/07 04:05:19;;;;;;;8.38;5.03;;;;;;;0.71;73.31;102684.88;5016536;28;20431;-45
2022/03/07 04:07:47;;;;;;;12.27;5.57;;;;;;;0.70;73.18;102677.81;5031707;28;20045;-47
2022/03/07 04:10:15;;;;;;;11.80;5.28;;;;;;;0.78;73.77;102681.41;5028093;28;20129;-46
2022/03/07 04:12:43;;;;;;;9.65;5.50;;;;;;;0.74;72.54;102680.03;5015281;28;20051;-45
2022/03/07 04:15:12;;;;;;;9.82;5.50;;;;;;;0.77;72.84;102674.38;5021735;28;20069;-47
2022/03/07 04:17:44;;;;;;;10.45;5.50;;;;;;;0.83;72.98;102671.06;5034616;28;20100;-45
2022/03/07 04:20:13;;;;;;;10.57;5.47;;;;;;;0.81;72.05;102680.25;5034889;28;20053;-45
2022/03/07 04:22:41;;;;;;;10.82;5.55;;;;;;;0.78;72.57;102680.59;5034687;28;20492;-45
2022/03/07 04:25:09;;;;;;;9.75;5.72;;;;;;;0.67;72.72;102676.31;5033686;28;20055;-46
2022/03/07 04:27:37;;;;;;;10.52;6.07;;;;;;;0.60;72.87;102680.59;5035661;28;20043;-46
2022/03/07 04:30:07;;;;;;;9.88;5.68;;;;;;;0.52;73.39;102678.72;5016280;28;20385;-45
2022/03/07 04:32:36;;;;;;;13.02;5.93;;;;;;;0.51;74.03;102685.09;5014674;28;20472;-46
2022/03/07 04:35:08;;;;;;;9.82;5.50;;;;;;;0.52;73.46;102685.91;5015764;28;20042;-45
2022/03/07 04:37:40;;;;;;;10.88;6.13;;;;;;;0.51;74.01;102686.94;5019805;28;20129;-45
2022/03/07 04:40:17;;;;;;;11.32;6.03;;;;;;;0.46;73.79;102676.66;5035358;28;20471;-48
2022/03/07 04:42:46;;;;;;;8.80;5.00;;;;;;;0.43;74.58;102682.31;5014410;28;20042;-42
2022/03/07 04:45:14;;;;;;;9.80;5.78;;;;;;;0.41;74.15;102678.97;5014679;28;20049;-43
2022/03/07 04:47:42;;;;;;;9.93;5.80;;;;;;;0.36;74.64;102678.56;5015432;28;20041;-44
2022/03/07 04:50:11;;;;;;;10.23;5.90;;;;;;;0.38;74.23;102685.47;5018159;28;20121;-46
2022/03/07 04:52:39;;;;;;;9.25;5.85;;;;;;;0.38;74.51;102679.25;5035175;28;20087;-42
2022/03/07 04:55:07;;;;;;;11.50;6.35;;;;;;;0.36;74.46;102681.25;5035190;28;20063;-41
2022/03/07 04:57:35;;;;;;;12.88;6.10;;;;;;;0.36;74.33;102682.13;5025007;28;20084;-42
2022/03/07 05:00:08;;;;;;;10.60;6.00;;;;;;;0.36;74.05;102684.81;5014291;28;20050;-42
2022/03/07 05:02:38;;;;;;;9.98;5.78;;;;;;;0.36;74.23;102678.56;5014188;28;20042;-41
2022/03/07 05:05:06;;;;;;;10.90;5.65;;;;;;;0.32;74.40;102680.72;5034946;28;20050;-41
2022/03/07 05:07:34;;;;;;;8.65;5.28;;;;;;;0.33;74.90;102682.41;5029493;28;20404;-44
2022/03/07 05:10:02;;;;;;;10.23;5.60;;;;;;;0.34;75.29;102681.44;5014773;28;20049;-43
2022/03/07 05:12:30;;;;;;;11.50;6.00;;;;;;;0.37;75.09;102678.44;5014667;28;20420;-42
2022/03/07 05:14:58;;;;;;;11.90;6.32;;;;;;;0.44;75.14;102677.81;5014939;28;20042;-41
2022/03/07 05:17:25;;;;;;;10.88;5.90;;;;;;;0.49;74.22;102679.03;5014635;28;20045;-44
2022/03/07 05:19:53;;;;;;;10.52;5.85;;;;;;;0.51;73.56;102679.72;5033971;28;20041;-45
2022/03/07 05:22:21;;;;;;;10.50;5.95;;;;;;;0.49;73.90;102680.88;5017265;28;20103;-44
2022/03/07 05:24:49;;;;;;;11.13;6.22;;;;;;;0.50;73.89;102677.19;5034339;28;20045;-44
2022/03/07 05:27:16;;;;;;;11.02;5.85;;;;;;;0.34;74.65;102684.09;5033651;28;20064;-43
2022/03/07 05:29:44;;;;;;;10.32;6.07;;;;;;;0.31;74.67;102687.06;5028996;28;20080;-43
2022/03/07 05:32:11;;;;;;;11.13;6.15;;;;;;;0.32;75.42;102680.72;5034412;28;20092;-42
2022/03/07 05:34:39;;;;;;;10.82;6.47;;;;;;;0.41;74.73;102674.44;5033417;28;20095;-48
2022/03/07 05:37:07;;;;;;;11.15;6.30;;;;;;;0.46;74.59;102667.75;5013489;28;20052;-43
2022/03/07 05:39:34;;;;;;;12.48;6.50;;;;;;;0.46;74.28;102670.44;5015384;28;20089;-44
2022/03/07 05:42:03;;;;;;;13.73;6.40;;;;;;;0.40;74.86;102672.75;5014454;28;20046;-42
2022/03/07 05:44:30;;;;;;;10.27;6.40;;;;;;;0.43;74.13;102671.59;5013449;28;20046;-44
2022/03/07 05:46:58;;;;;;;13.60;6.82;;;;;;;0.49;74.00;102670.97;5030183;28;20447;-44
2022/03/07 05:49:26;;;;;;;11.48;6.38;;;;;;;0.47;74.01;102674.81;5049405;28;20136;-46
2022/03/07 05:51:54;;;;;;;10.38;6.28;;;;;;;0.38;74.33;102671.22;5032520;28;20057;-50
2022/03/07 05:54:21;;;;;;;10.40;6.25;;;;;;;0.36;74.73;102676.75;5033675;28;20046;-42
2022/03/07 05:56:49;;;;;;;12.40;6.68;;;;;;;0.37;74.18;102675.75;5022860;28;20060;-43
2022/03/07 05:59:17;;;;;;;12.20;7.05;;;;;;;0.33;74.73;102679.72;5013827;28;20416;-47
2022/03/07 06:01:44;;;;;;;11.05;6.95;;;;;;;0.32;74.37;102683.41;5014053;28;20413;-43
2022/03/07 06:04:12;;;;;;;12.57;7.03;;;;;;;0.28;75.10;102689.22;5014071;28;20038;-44
2022/03/07 06:06:39;;;;;;;12.02;6.78;;;;;;;0.20;75.41;102700.72;5029692;28;20076;-45
2022/03/07 06:09:07;;;;;;;13.18;6.90;;;;;;;0.16;75.52;102704.69;5032277;28;20462;-43
2022/03/07 06:11:35;;;;;;;13.25;6.88;;;;;;;0.13;75.73;102707.69;5033315;28;20030;-43
2022/03/07 06:14:02;;;;;;;11.98;7.13;;;;;;;0.08;75.59;102708.16;5033648;28;20050;-43
2022/03/07 06:16:30;;;;;;;9.35;6.72;;;;;;;0.09;76.19;102712.50;5031918;28;20041;-43
2022/03/07 06:18:58;;;;;;;14.60;7.60;;;;;;;0.04;75.77;102713.97;5031625;28;20045;-42
2022/03/07 06:21:25;;;;;;;12.40;6.70;;;;;;;-0.03;76.16;102717.22;5032046;28;20452;-42
2022/03/07 06:23:53;;;;;;;9.85;6.43;;;;;;;0.01;76.96;102709.75;5033250;28;20103;-44
2022/03/07 06:26:21;;;;;;;12.20;6.93;;;;;;;0.04;76.87;102716.63;5032506;28;20455;-45
2022/03/07 06:28:49;;;;;;;10.48;6.50;;;;;;;0.10;76.12;102718.72;5031884;28;20128;-48
2022/03/07 06:31:16;;;;;;;12.75;7.13;;;;;;;0.12;75.66;102722.06;5030135;28;20041;-46
2022/03/07 06:33:44;;;;;;;12.30;7.30;;;;;;;0.09;76.09;102719.69;5033126;28;20052;-48
2022/03/07 06:36:12;;;;;;;12.00;6.93;;;;;;;0.09;76.25;102722.38;5022509;28;20049;-51
2022/03/07 06:38:40;;;;;;;12.63;7.07;;;;;;;0.15;76.51;102728.00;5029994;28;20152;-51
2022/03/07 06:41:08;;;;;;;11.05;6.85;;;;;;;0.28;76.41;102732.97;5032029;28;20052;-52
2022/03/07 06:43:37;;;;;;;11.00;6.90;;;;;;;0.29;75.16;102728.44;5017956;28;20038;-51
2022/03/07 06:46:04;;;;;;;12.30;7.40;;;;;;;0.20;76.14;102727.53;5013478;28;20052;-48
2022/03/07 06:48:33;;;;;;;10.40;7.03;;;;;;;0.12;76.31;102730.13;5012183;28;20046;-48
2022/03/07 06:51:01;;;;;;;11.77;7.22;;;;;;;0.12;76.18;102733.66;5023232;28;20151;-49
2022/03/07 06:53:28;;;;;;;14.30;7.28;;;;;;;0.13;76.56;102724.59;5031811;28;20042;-49
2022/03/07 06:55:56;;;;;;;11.40;7.15;;;;;;;0.23;76.38;102729.06;4331470;28;10000098;-45
2022/03/07 06:58:24;;;;;;;11.65;6.97;;;;;;;0.19;76.42;102731.19;5029455;28;20119;-49
2022/03/07 07:00:52;;;;;;;12.05;7.20;;;;;;;0.20;76.05;102727.53;5029720;28;20050;-44
2022/03/07 07:03:20;;;;;;;11.38;6.78;;;;;;;0.16;76.52;102728.81;5030187;28;20046;-46
2022/03/07 07:05:47;;;;;;;9.68;6.47;;;;;;;0.23;76.79;102724.53;5027691;28;20507;-44
2022/03/07 07:08:15;;;;;;;11.80;7.00;;;;;;;0.27;76.93;102723.25;5019677;28;20126;-46
2022/03/07 07:10:43;;;;;;;12.20;6.95;;;;;;;0.28;76.58;102719.56;5014289;28;20041;-44
2022/03/07 07:13:14;;;;;;;10.45;6.75;;;;;;;0.32;76.67;102723.63;5029150;28;20530;-46
2022/03/07 07:15:42;;;;;;;13.55;7.50;;;;;;;0.31;76.62;102715.72;5018613;28;20061;-46
2022/03/07 07:18:10;;;;;;;13.63;7.60;;;;;;;0.30;76.18;102725.63;5013856;28;20050;-47
2022/03/07 07:20:38;;;;;;;11.30;7.40;;;;;;;0.38;76.67;102723.00;5013647;28;20046;-47
2022/03/07 07:23:05;;;;;;;11.05;6.82;;;;;;;0.42;75.84;102724.38;5012643;28;20046;-46
2022/03/07 07:25:33;;;;;;;12.45;7.18;;;;;;;0.39;75.94;102724.69;5020645;28;20555;-45
2022/03/07 07:28:00;;;;;;;13.88;7.45;;;;;;;0.35;76.42;102720.63;5030912;28;20033;-47
2022/03/07 07:30:28;;;;;;;12.48;6.82;;;;;;;0.44;76.46;102723.41;5033477;28;20135;-45
2022/03/07 07:32:56;;;;;;;11.32;7.00;;;;;;;0.45;75.72;102717.03;5033927;28;20041;-44
2022/03/07 07:35:23;;;;;;;13.70;6.57;;;;;;;0.45;75.94;102727.75;5027159;28;20044;-44
2022/03/07 07:37:51;;;;;;;12.38;7.50;;;;;;;0.45;76.79;102733.13;5036126;28;20437;-46
2022/03/07 07:40:19;;;;;;;13.95;7.65;;;;;;;0.45;76.92;102728.59;5035909;28;20232;-46
2022/03/07 07:42:47;;;;;;;13.07;7.65;;;;;;;0.49;76.35;102734.50;5036209;28;20128;-44
2022/03/07 07:45:14;;;;;;;13.77;7.32;;;;;;;0.57;76.16;102731.88;5030787;28;20538;-45
2022/03/07 07:47:43;;;;;;;12.75;8.10;;;;;;;0.53;76.56;102738.53;5016595;28;20416;-46
2022/03/07 07:50:11;;;;;;;12.88;7.78;;;;;;;0.54;76.01;102727.69;5016241;28;20405;-46
2022/03/07 07:52:38;;;;;;;14.40;7.70;;;;;;;0.70;76.13;102735.03;5016279;28;20042;-47
2022/03/07 07:55:06;;;;;;;14.25;7.72;;;;;;;0.76;75.10;102736.25;5028920;28;20411;-44
2022/03/07 07:57:35;;;;;;;14.00;7.63;;;;;;;0.82;75.00;102741.81;5034511;28;20504;-47
2022/03/07 08:00:05;;;;;;;13.20;8.32;;;;;;;0.87;74.93;102738.69;5035032;28;20488;-46
2022/03/07 08:02:44;;;;;;;13.35;8.85;;;;;;;0.87;75.43;102740.50;5036101;28;20124;-46
2022/03/07 08:05:12;;;;;;;12.35;7.60;;;;;;;0.89;75.16;102735.81;5029367;28;20034;-46
2022/03/07 08:07:41;;;;;;;12.35;7.68;;;;;;;0.93;74.38;102737.19;5014970;28;20052;-45
2022/03/07 08:10:10;;;;;;;11.68;7.75;;;;;;;0.99;74.49;102736.59;5015901;28;20068;-46
2022/03/07 08:12:38;;;;;;;11.68;7.43;;;;;;;1.03;73.65;102744.16;5014667;28;20045;-46
2022/03/07 08:15:11;;;;;;;15.68;8.35;;;;;;;1.07;73.00;102742.00;5017955;28;20042;-48
2022/03/07 08:17:49;;;;;;;11.93;7.70;;;;;;;1.13;73.26;102741.38;5015958;28;20418;-48
2022/03/07 08:20:23;;;;;;;13.65;7.70;;;;;;;1.16;72.61;102743.75;5014678;28;20057;-45
2022/03/07 08:22:51;;;;;;;13.65;8.00;;;;;;;1.13;72.79;102740.50;5014460;28;20121;-44
2022/03/07 08:25:20;;;;;;;14.38;7.70;;;;;;;1.15;72.58;102742.03;4658535;28;10000573;-42
2022/03/07 08:27:48;;;;;;;15.18;7.90;;;;;;;1.13;72.55;102745.88;5011387;28;20046;-46
2022/03/07 08:30:18;;;;;;;13.18;7.60;;;;;;;1.15;72.66;102744.72;5012593;28;20104;-45
2022/03/07 08:32:45;;;;;;;14.35;7.72;;;;;;;1.17;73.05;102744.56;5012515;28;20057;-46
2022/03/07 08:35:14;;;;;;;12.57;7.50;;;;;;;1.25;73.02;102748.16;5012379;28;20641;-46
2022/03/07 08:37:45;;;;;;;12.43;7.38;;;;;;;1.27;72.14;102748.84;5029826;28;20496;-44
2022/03/07 08:40:14;;;;;;;15.20;7.53;;;;;;;1.36;71.90;102740.84;5013462;28;20108;-46
2022/03/07 08:42:43;;;;;;;12.27;7.65;;;;;;;1.40;71.13;102739.53;5015169;28;20077;-45
2022/03/07 08:45:18;;;;;;;14.77;7.70;;;;;;;1.47;71.13;102745.94;5014472;28;20046;-47
2022/03/07 08:47:46;;;;;;;12.38;6.97;;;;;;;1.52;71.51;102738.25;5014129;28;20396;-46
2022/03/07 08:50:16;;;;;;;17.58;7.18;;;;;;;1.58;70.93;102742.09;5016345;28;20049;-46
2022/03/07 08:52:44;;;;;;;11.85;6.03;;;;;;;1.65;70.97;102743.16;5015556;28;20520;-47
2022/03/07 08:55:13;;;;;;;11.68;6.47;;;;;;;1.75;68.09;102748.41;5014411;28;20046;-46
2022/03/07 08:57:40;;;;;;;12.93;6.30;;;;;;;1.82;68.80;102744.06;5014945;28;20091;-47
2022/03/07 09:00:11;;;;;;;12.57;6.38;;;;;;;1.88;68.69;102743.41;5015348;28;20078;-46
2022/03/07 09:02:46;;;;;;;12.35;6.47;;;;;;;1.94;67.80;102737.38;5016135;28;20050;-45
2022/03/07 09:05:15;;;;;;;11.55;5.90;;;;;;;1.96;67.90;102735.38;5014191;28;20068;-46
2022/03/07 09:07:43;;;;;;;12.00;5.97;;;;;;;2.04;67.95;102738.06;5014963;28;20046;-43
2022/03/07 09:10:11;;;;;;;10.82;6.03;;;;;;;2.03;66.81;102731.03;5013560;28;20042;-43
2022/03/07 09:12:38;;;;;;;11.77;6.55;;;;;;;2.07;66.99;102724.31;5014962;28;20041;-43
2022/03/07 09:15:07;;;;;;;10.30;5.85;;;;;;;2.09;64.68;102730.38;5015861;28;20076;-43
2022/03/07 09:17:34;;;;;;;12.90;5.97;;;;;;;2.08;64.68;102723.31;5014583;28;20104;-42
2022/03/07 09:20:02;;;;;;;11.68;5.20;;;;;;;2.10;64.81;102739.28;5014905;28;20038;-43
2022/03/07 09:22:32;;;;;;;11.15;6.07;;;;;;;2.13;65.07;102729.03;5013470;28;20046;-43
2022/03/07 09:24:59;;;;;;;13.65;6.70;;;;;;;2.22;65.65;102737.13;5014678;28;20386;-43
2022/03/07 09:27:27;;;;;;;10.38;6.18;;;;;;;2.22;63.94;102731.75;5015729;28;20042;-44
2022/03/07 09:29:55;;;;;;;12.05;6.45;;;;;;;2.21;64.12;102728.19;5014610;28;20113;-46
2022/03/07 09:32:22;;;;;;;10.95;6.03;;;;;;;2.22;64.03;102726.38;5014115;28;20038;-45
2022/03/07 09:34:50;;;;;;;12.07;6.28;;;;;;;2.28;64.40;102734.59;5014398;28;20395;-44
2022/03/07 09:37:18;;;;;;;12.45;6.20;;;;;;;2.32;64.74;102732.41;5014410;28;20061;-46
2022/03/07 09:39:46;;;;;;;9.13;5.60;;;;;;;2.37;64.45;102724.69;5017463;28;20033;-45
2022/03/07 09:42:14;;;;;;;12.13;5.93;;;;;;;2.43;63.16;102718.66;5014656;28;20049;-44
2022/03/07 09:44:41;;;;;;;10.05;5.30;;;;;;;2.47;63.97;102720.00;5013472;28;20400;-47
2022/03/07 09:47:09;;;;;;;10.02;5.30;;;;;;;2.61;63.00;102710.41;5014442;28;20080;-44
2022/03/07 09:49:37;;;;;;;10.10;4.70;;;;;;;2.70;62.98;102706.72;5014206;28;20038;-46
2022/03/07 09:52:05;;;;;;;8.98;4.75;;;;;;;2.68;61.34;102708.72;5016896;28;20060;-44
2022/03/07 09:54:33;;;;;;;8.98;4.72;;;;;;;2.75;61.09;102707.03;5034126;28;20116;-45
2022/03/07 09:57:00;;;;;;;9.30;4.75;;;;;;;2.73;60.54;102703.66;5033629;28;20069;-44
2022/03/07 09:59:30;;;;;;;11.85;5.22;;;;;;;2.84;59.87;102707.88;5033849;28;20055;-44
2022/03/07 10:02:09;;;;;;;10.00;4.47;;;;;;;2.82;59.92;102709.91;5033870;28;20091;-45
2022/03/07 10:04:45;;;;;;;12.70;5.10;;;;;;;2.84;60.38;102707.88;5027134;28;20034;-45
2022/03/07 10:07:13;;;;;;;14.93;6.13;;;;;;;2.94;63.15;102708.53;5013092;28;20485;-42
2022/03/07 10:09:41;;;;;;;8.82;4.70;;;;;;;2.91;60.14;102708.88;5013625;28;20081;-43
2022/03/07 10:12:09;;;;;;;8.60;4.78;;;;;;;2.88;59.44;102702.97;5019268;28;20047;-42
2022/03/07 10:14:44;;;;;;;6.97;4.50;;;;;;;2.91;60.33;102698.13;5022149;28;20078;-44
2022/03/07 10:17:27;;;;;;;9.73;5.32;;;;;;;2.97;59.45;102696.59;5013059;28;20057;-50
2022/03/07 10:19:56;;;;;;;9.43;4.68;;;;;;;3.01;59.86;102699.75;5012947;28;20092;-47
2022/03/07 10:22:27;;;;;;;12.48;5.05;;;;;;;3.19;60.06;102697.69;5013883;28;20480;-46
2022/03/07 10:25:03;;;;;;;8.75;4.38;;;;;;;3.27;59.75;102692.31;5017933;28;20040;-45
2022/03/07 10:27:33;;;;;;;8.15;3.90;;;;;;;3.29;57.39;102690.25;5013801;28;20485;-50
2022/03/07 10:30:02;;;;;;;9.30;4.50;;;;;;;3.34;58.37;102687.91;5013830;28;20088;-47
2022/03/07 10:32:30;;;;;;;9.82;4.65;;;;;;;3.34;56.78;102681.66;5013310;28;20094;-47
2022/03/07 10:34:57;;;;;;;7.40;4.38;;;;;;;3.31;57.72;102672.06;5013552;28;20549;-45
2022/03/07 10:37:36;;;;;;;9.82;4.60;;;;;;;3.50;59.89;102669.97;5022268;28;20132;-46
2022/03/07 10:40:18;;;;;;;9.90;4.18;;;;;;;3.39;57.69;102671.19;5031784;28;20033;-47
2022/03/07 10:42:48;;;;;;;7.70;4.32;;;;;;;3.34;57.93;102663.66;5032867;28;20053;-46
2022/03/07 10:45:16;;;;;;;7.82;4.38;;;;;;;3.41;57.42;102671.88;5032570;28;20045;-47
2022/03/07 10:47:49;;;;;;;10.45;4.93;;;;;;;3.45;57.64;102661.59;5031780;28;20069;-44
2022/03/07 10:50:20;;;;;;;11.57;5.15;;;;;;;3.60;60.13;102657.13;5031182;28;20037;-47
2022/03/07 10:52:48;;;;;;;8.90;4.80;;;;;;;3.68;61.02;102657.09;5031906;28;20132;-47
2022/03/07 10:55:23;;;;;;;10.45;4.90;;;;;;;3.81;61.39;102651.94;5015735;28;20045;-49
2022/03/07 10:57:51;;;;;;;8.43;4.43;;;;;;;3.69;57.13;102644.47;5031820;28;20085;-45
2022/03/07 11:00:21;;;;;;;9.98;4.50;;;;;;;3.70;56.58;102644.25;5033066;28;20049;-47
2022/03/07 11:02:49;;;;;;;10.20;5.05;;;;;;;3.78;58.73;102638.84;5031244;28;20044;-46
2022/03/07 11:05:18;;;;;;;13.27;4.40;;;;;;;3.86;57.07;102637.09;5031685;28;20124;-47
2022/03/07 11:07:49;;;;;;;9.50;4.60;;;;;;;3.91;57.93;102637.41;5032877;28;20041;-46
2022/03/07 11:10:17;;;;;;;11.30;4.88;;;;;;;3.83;56.90;102628.34;5011055;28;20049;-45
2022/03/07 11:12:45;;;;;;;9.25;4.65;;;;;;;3.81;56.92;102625.00;5012920;28;20129;-46
2022/03/07 11:15:18;;;;;;;10.05;5.20;;;;;;;3.79;57.99;102627.03;5024197;28;20069;-46
2022/03/07 11:17:47;;;;;;;8.45;5.00;;;;;;;3.87;57.12;102628.00;5032984;28;20449;-47
2022/03/07 11:20:16;;;;;;;9.88;5.05;;;;;;;3.89;57.67;102624.09;5032860;28;20120;-46
2022/03/07 11:22:44;;;;;;;10.23;4.65;;;;;;;3.87;56.95;102612.63;5032560;28;20042;-45
2022/03/07 11:25:16;;;;;;;8.10;4.57;;;;;;;3.87;57.47;102615.34;5031475;28;20418;-47
2022/03/07 11:27:44;;;;;;;9.10;4.80;;;;;;;3.84;57.08;102613.00;5029966;28;20049;-45
2022/03/07 11:30:19;;;;;;;9.13;5.30;;;;;;;4.00;57.74;102612.06;5032169;28;20033;-47
2022/03/07 11:32:50;;;;;;;9.43;5.18;;;;;;;4.02;57.78;102605.47;5032888;28;20435;-48
2022/03/07 11:35:18;;;;;;;10.15;4.93;;;;;;;4.09;57.65;102602.03;5031580;28;20046;-45